createdAt,value
2023-01-19T00:00:34.400Z,12.32
2023-01-19T00:03:37.128Z,11.65
2023-01-19T00:06:39.112Z,16.75
2023-01-19T00:09:40.778Z,11.60
2023-01-19T00:12:42.582Z,12.88
2023-01-19T00:15:44.412Z,11.25
2023-01-19T00:18:46.316Z,12.18
2023-01-19T00:21:48.015Z,10.93
2023-01-19T00:24:50.352Z,12.32
2023-01-19T00:27:52.032Z,12.75
2023-01-19T00:30:53.632Z,9.82
2023-01-19T00:33:55.438Z,9.48
2023-01-19T00:36:57.035Z,12.63
2023-01-19T00:39:58.815Z,12.57
2023-01-19T00:43:00.907Z,9.10
2023-01-19T00:46:02.950Z,12.00
2023-01-19T00:49:05.737Z,12.48
2023-01-19T00:52:07.480Z,11.73
2023-01-19T00:55:11.608Z,12.63
2023-01-19T00:58:13.360Z,11.27
2023-01-19T01:01:15.131Z,8.73
2023-01-19T01:04:16.905Z,12.32
2023-01-19T01:07:18.542Z,10.45
2023-01-19T01:10:23.367Z,12.63
2023-01-19T01:13:27.541Z,9.88
2023-01-19T01:16:29.826Z,9.85
2023-01-19T01:19:31.800Z,14.50
2023-01-19T01:22:33.494Z,12.32
2023-01-19T01:25:37.789Z,11.70
2023-01-19T01:28:39.377Z,8.68
2023-01-19T01:31:41.148Z,10.23
2023-01-19T01:34:42.867Z,9.98
2023-01-19T01:37:45.687Z,10.18
2023-01-19T01:40:47.302Z,8.88
2023-01-19T01:43:58.153Z,9.60
2023-01-19T01:47:00.636Z,11.60
2023-01-19T01:50:23.658Z,10.32
2023-01-19T01:53:25.283Z,9.75
2023-01-19T01:56:42.529Z,9.07
2023-01-19T01:59:48.610Z,8.43
2023-01-19T02:02:51.119Z,12.38
2023-01-19T02:05:57.553Z,11.32
2023-01-19T02:09:25.932Z,12.40
2023-01-19T02:12:47.948Z,12.50
2023-01-19T02:16:02.905Z,10.10
2023-01-19T02:19:07.271Z,12.23
2023-01-19T02:22:20.331Z,10.32
2023-01-19T02:25:22.714Z,7.85
2023-01-19T02:28:26.077Z,9.80
2023-01-19T02:31:31.047Z,9.23
2023-01-19T02:34:32.906Z,10.82
2023-01-19T02:37:40.173Z,11.70
2023-01-19T02:40:45.166Z,9.85
2023-01-19T02:43:49.564Z,11.52
2023-01-19T02:46:54.193Z,13.15
2023-01-19T02:50:00.745Z,11.90
2023-01-19T02:53:17.294Z,8.57
2023-01-19T02:56:49.951Z,10.75
2023-01-19T03:00:26.937Z,11.13
2023-01-19T03:03:40.828Z,11.30
2023-01-19T03:07:08.815Z,11.50
2023-01-19T03:10:20.539Z,9.88
2023-01-19T03:13:40.213Z,8.93
2023-01-19T03:16:55.300Z,10.30
2023-01-19T03:19:58.074Z,11.48
2023-01-19T03:23:04.403Z,12.45
2023-01-19T03:26:11.060Z,10.63
2023-01-19T03:29:15.112Z,7.78
2023-01-19T03:32:20.109Z,11.95
2023-01-19T03:35:25.478Z,11.52
2023-01-19T03:38:28.951Z,8.88
2023-01-19T03:41:32.774Z,9.32
2023-01-19T03:44:38.095Z,9.27
2023-01-19T03:47:40.530Z,12.73
2023-01-19T03:50:43.299Z,10.70
2023-01-19T03:53:45.848Z,12.48
2023-01-19T03:56:47.607Z,12.30
2023-01-19T03:59:49.537Z,11.63
2023-01-19T04:02:51.267Z,10.77
2023-01-19T04:05:53.029Z,11.70
2023-01-19T04:08:56.021Z,10.05
2023-01-19T04:11:57.605Z,11.98
2023-01-19T04:14:59.298Z,11.30
2023-01-19T04:18:01.173Z,11.90
2023-01-19T04:21:04.976Z,12.45
2023-01-19T04:24:07.397Z,9.10
2023-01-19T04:27:09.161Z,12.90
2023-01-19T04:30:11.356Z,9.32
2023-01-19T04:33:12.897Z,10.07
2023-01-19T04:36:14.623Z,10.52
2023-01-19T04:39:16.415Z,9.32
2023-01-19T04:42:18.361Z,10.63
2023-01-19T04:45:20.438Z,11.73
2023-01-19T04:48:22.191Z,12.52
2023-01-19T04:51:24.141Z,9.98
2023-01-19T04:54:27.665Z,8.38
2023-01-19T04:57:30.237Z,11.77
2023-01-19T05:00:32.176Z,10.35
2023-01-19T05:03:33.793Z,12.07
2023-01-19T05:06:35.633Z,10.15
2023-01-19T05:09:37.324Z,11.30
2023-01-19T05:12:39.156Z,10.13
2023-01-19T05:15:40.757Z,9.20
2023-01-19T05:18:42.385Z,11.73
2023-01-19T05:21:44.106Z,12.15
2023-01-19T05:24:45.827Z,13.38
2023-01-19T05:27:47.892Z,10.82
2023-01-19T05:30:50.193Z,11.38
2023-01-19T05:33:52.281Z,9.32
2023-01-19T05:36:54.194Z,8.32
2023-01-19T05:39:56.175Z,15.50
2023-01-19T05:43:01.126Z,10.32
2023-01-19T05:46:09.473Z,11.13
2023-01-19T05:49:12.917Z,7.35
2023-01-19T05:52:14.943Z,10.25
2023-01-19T05:55:16.682Z,7.35
2023-01-19T05:58:21.619Z,11.65
2023-01-19T06:01:23.548Z,8.65
2023-01-19T06:04:25.423Z,10.13
2023-01-19T06:07:29.090Z,9.23
2023-01-19T06:10:31.196Z,9.05
2023-01-19T06:13:33.722Z,9.18
2023-01-19T06:16:35.686Z,11.52
2023-01-19T06:19:37.891Z,10.95
2023-01-19T06:22:39.763Z,7.82
2023-01-19T06:25:41.551Z,8.98
2023-01-19T06:28:43.115Z,9.80
2023-01-19T06:31:45.538Z,9.68
2023-01-19T06:34:47.461Z,8.90
2023-01-19T06:37:49.088Z,7.68
2023-01-19T06:40:58.823Z,10.55
2023-01-19T06:44:00.814Z,7.93
2023-01-19T06:47:14.920Z,8.93
2023-01-19T06:50:18.330Z,8.45
2023-01-19T06:53:22.186Z,8.43
2023-01-19T06:56:24.051Z,8.23
2023-01-19T06:59:26.222Z,10.52
2023-01-19T07:02:28.686Z,9.43
2023-01-19T07:05:30.787Z,11.38
2023-01-19T07:08:36.432Z,8.57
2023-01-19T07:11:38.217Z,8.00
2023-01-19T07:14:40.101Z,7.85
2023-01-19T07:17:42.526Z,8.88
2023-01-19T07:20:45.958Z,8.13
2023-01-19T07:23:53.361Z,7.75
2023-01-19T07:26:55.125Z,6.80
2023-01-19T07:29:57.214Z,9.15
2023-01-19T07:32:59.257Z,8.13
2023-01-19T07:36:01.414Z,9.50
2023-01-19T07:39:03.194Z,7.85
2023-01-19T07:42:05.100Z,9.27
2023-01-19T07:45:07.869Z,6.95
2023-01-19T07:48:10.036Z,7.78
2023-01-19T07:51:19.074Z,8.88
2023-01-19T07:54:20.938Z,6.72
2023-01-19T07:57:23.209Z,7.30
2023-01-19T08:00:25.482Z,6.40
2023-01-19T08:03:27.273Z,7.78
2023-01-19T08:06:39.884Z,8.48
2023-01-19T08:09:42.552Z,10.80
2023-01-19T08:12:44.363Z,7.30
2023-01-19T08:15:53.105Z,7.18
2023-01-19T08:18:55.383Z,7.38
2023-01-19T08:21:58.925Z,7.10
2023-01-19T08:25:01.081Z,7.60
2023-01-19T08:28:05.356Z,8.15
2023-01-19T08:31:19.153Z,7.68
2023-01-19T08:34:22.109Z,9.00
2023-01-19T08:37:24.891Z,7.65
2023-01-19T08:40:28.736Z,7.25
2023-01-19T08:43:30.341Z,9.55
2023-01-19T08:46:32.148Z,6.57
2023-01-19T08:49:34.083Z,8.82
2023-01-19T08:52:35.852Z,12.45
2023-01-19T08:55:38.013Z,8.23
2023-01-19T08:58:42.264Z,6.65
2023-01-19T09:01:46.217Z,6.15
2023-01-19T09:04:48.093Z,7.93
2023-01-19T09:07:51.844Z,9.07
2023-01-19T09:10:53.618Z,8.88
2023-01-19T09:13:55.590Z,6.82
2023-01-19T09:16:57.419Z,10.60
2023-01-19T09:19:59.392Z,10.20
2023-01-19T09:23:01.181Z,8.10
2023-01-19T09:26:05.376Z,9.15
2023-01-19T09:29:07.297Z,9.57
2023-01-19T09:32:11.229Z,8.95
2023-01-19T09:35:14.648Z,9.55
2023-01-19T09:38:16.967Z,8.43
2023-01-19T09:41:22.846Z,6.93
2023-01-19T09:44:35.529Z,7.95
2023-01-19T09:47:39.394Z,7.45
2023-01-19T09:50:47.025Z,7.38
2023-01-19T09:54:03.114Z,8.77
2023-01-19T09:57:11.353Z,6.95
2023-01-19T10:00:24.516Z,9.15
2023-01-19T10:03:26.238Z,6.50
2023-01-19T10:06:30.678Z,5.45
2023-01-19T10:09:47.727Z,4.22
2023-01-19T10:13:23.781Z,8.55
2023-01-19T10:16:31.604Z,6.80
2023-01-19T10:19:38.163Z,6.15
2023-01-19T10:22:49.853Z,6.50
2023-01-19T10:25:52.289Z,6.30
2023-01-19T10:29:21.110Z,5.05
2023-01-19T10:32:27.617Z,4.88
2023-01-19T10:35:30.054Z,6.97
2023-01-19T10:38:34.337Z,5.75
2023-01-19T10:41:53.337Z,7.53
2023-01-19T10:44:55.647Z,5.68
2023-01-19T10:48:07.675Z,6.15
2023-01-19T10:51:11.101Z,5.85
2023-01-19T10:54:13.714Z,4.40
2023-01-19T10:57:31.414Z,3.35
2023-01-19T11:00:41.703Z,3.45
2023-01-19T11:03:43.787Z,3.95
2023-01-19T11:06:45.571Z,4.10
2023-01-19T11:09:48.747Z,3.85
2023-01-19T11:13:04.600Z,3.00
2023-01-19T11:16:15.792Z,3.08
2023-01-19T11:19:27.986Z,3.45
2023-01-19T11:22:33.428Z,3.58
2023-01-19T11:25:36.298Z,3.35
2023-01-19T11:28:44.974Z,4.03
2023-01-19T11:31:47.139Z,3.05
2023-01-19T11:34:49.749Z,2.58
2023-01-19T11:38:06.461Z,4.22
2023-01-19T11:41:18.766Z,4.05
2023-01-19T11:44:31.769Z,3.10
2023-01-19T11:47:43.927Z,2.90
2023-01-19T11:50:46.348Z,3.97
2023-01-19T11:53:52.737Z,3.92
2023-01-19T11:56:58.878Z,3.83
2023-01-19T12:00:05.185Z,4.35
2023-01-19T12:03:21.161Z,3.75
2023-01-19T12:06:30.962Z,4.63
2023-01-19T12:09:42.811Z,4.40
2023-01-19T12:12:44.880Z,3.97
2023-01-19T12:15:48.219Z,6.13
2023-01-19T12:19:16.122Z,4.40
2023-01-19T12:22:21.082Z,5.00
2023-01-19T12:25:29.820Z,2.67
2023-01-19T12:28:36.801Z,2.72
2023-01-19T12:31:40.581Z,2.58
2023-01-19T12:34:55.884Z,2.08
2023-01-19T12:37:57.780Z,1.67
2023-01-19T12:41:19.854Z,1.67
2023-01-19T12:44:24.363Z,4.78
2023-01-19T12:47:27.354Z,2.83
2023-01-19T12:50:40.231Z,2.70
2023-01-19T12:53:54.622Z,3.15
2023-01-19T12:57:17.116Z,5.18
2023-01-19T13:00:24.682Z,4.53
2023-01-19T13:03:26.960Z,2.85
2023-01-19T13:07:05.700Z,6.00
2023-01-19T13:10:44.771Z,5.97
2023-01-19T13:13:59.154Z,6.30
2023-01-19T13:17:03.646Z,9.02
2023-01-19T13:20:22.687Z,6.30
2023-01-19T13:23:27.405Z,7.25
2023-01-19T13:26:33.201Z,8.23
2023-01-19T13:29:37.444Z,9.25
2023-01-19T13:32:42.268Z,8.30
2023-01-19T13:35:54.660Z,9.07
2023-01-19T13:39:00.054Z,8.00
2023-01-19T13:42:06.154Z,9.02
2023-01-19T13:45:11.771Z,7.85
2023-01-19T13:48:18.030Z,9.00
2023-01-19T13:51:20.464Z,9.23
2023-01-19T13:54:26.120Z,9.02
2023-01-19T13:57:27.764Z,11.98
2023-01-19T14:00:30.974Z,10.70
2023-01-19T14:03:32.969Z,11.60
2023-01-19T14:06:36.822Z,6.57
2023-01-19T14:09:39.570Z,14.02
2023-01-19T14:12:54.554Z,9.23
2023-01-19T14:16:06.218Z,10.57
2023-01-19T14:19:08.397Z,10.75
2023-01-19T14:22:10.279Z,10.02
2023-01-19T14:25:35.678Z,12.32
2023-01-19T14:28:45.726Z,11.88
2023-01-19T14:31:50.050Z,8.82
2023-01-19T14:35:07.397Z,10.48
2023-01-19T14:38:14.299Z,11.77
2023-01-19T14:41:49.697Z,9.30
2023-01-19T14:44:53.548Z,14.98
2023-01-19T14:47:55.646Z,9.60
2023-01-19T14:51:05.332Z,12.52
2023-01-19T14:54:18.074Z,13.65
2023-01-19T14:57:20.368Z,11.68
2023-01-19T15:00:28.225Z,13.00
2023-01-19T15:03:44.727Z,9.40
2023-01-19T15:06:48.790Z,11.73
2023-01-19T15:09:51.319Z,9.73
2023-01-19T15:12:54.972Z,12.25
2023-01-19T15:15:58.663Z,12.00
2023-01-19T15:19:00.643Z,10.70
2023-01-19T15:22:02.466Z,11.27
2023-01-19T15:25:04.532Z,11.10
2023-01-19T15:28:12.485Z,15.18
2023-01-19T15:31:26.938Z,9.75
2023-01-19T15:34:28.749Z,10.57
2023-01-19T15:37:30.720Z,12.07
2023-01-19T15:40:32.550Z,9.13
2023-01-19T15:43:34.272Z,9.40
2023-01-19T15:46:36.288Z,10.68
2023-01-19T15:49:38.096Z,14.15
2023-01-19T15:52:39.910Z,9.57
2023-01-19T15:55:42.175Z,11.52
2023-01-19T15:58:44.929Z,10.70
2023-01-19T16:01:47.170Z,15.02
2023-01-19T16:04:49.685Z,12.57
2023-01-19T16:07:52.010Z,17.95
2023-01-19T16:10:54.088Z,11.85
2023-01-19T16:13:55.994Z,10.55
2023-01-19T16:16:59.975Z,10.05
2023-01-19T16:20:01.944Z,13.07
2023-01-19T16:23:19.601Z,12.73
2023-01-19T16:26:27.470Z,15.20
2023-01-19T16:29:30.479Z,10.45
2023-01-19T16:32:34.021Z,14.13
2023-01-19T16:35:35.958Z,16.90
2023-01-19T16:38:38.027Z,13.77
2023-01-19T16:41:40.302Z,16.38
2023-01-19T16:44:42.605Z,11.40
2023-01-19T16:47:46.895Z,11.45
2023-01-19T16:51:06.090Z,11.52
2023-01-19T16:54:12.225Z,13.75
2023-01-19T16:57:15.163Z,12.82
2023-01-19T17:00:17.737Z,13.27
2023-01-19T17:03:19.745Z,16.45
2023-01-19T17:06:23.450Z,14.75
2023-01-19T17:09:25.157Z,15.73
2023-01-19T17:12:26.977Z,19.98
2023-01-19T17:15:30.670Z,20.08
2023-01-19T17:18:34.683Z,21.00
2023-01-19T17:21:36.602Z,19.45
2023-01-19T17:24:42.527Z,14.98
2023-01-19T17:27:44.595Z,16.35
2023-01-19T17:30:47.564Z,17.98
2023-01-19T17:33:50.871Z,15.25
2023-01-19T17:36:52.861Z,16.08
2023-01-19T17:39:55.292Z,17.02
2023-01-19T17:42:57.019Z,17.00
2023-01-19T17:45:59.938Z,15.50
2023-01-19T17:49:03.653Z,21.55
2023-01-19T17:52:05.343Z,17.95
2023-01-19T17:55:08.590Z,21.80
2023-01-19T17:58:12.388Z,18.50
2023-01-19T18:01:19.224Z,24.85
2023-01-19T18:04:21.045Z,22.45
2023-01-19T18:07:22.901Z,20.05
2023-01-19T18:10:24.741Z,27.55
2023-01-19T18:13:27.512Z,23.90
2023-01-19T18:16:30.222Z,21.98
2023-01-19T18:19:32.298Z,15.52
2023-01-19T18:22:34.362Z,19.83
2023-01-19T18:25:38.599Z,23.27
2023-01-19T18:28:40.675Z,19.77
2023-01-19T18:31:42.935Z,18.15
2023-01-19T18:34:45.788Z,16.88
2023-01-19T18:37:48.622Z,20.23
2023-01-19T18:41:00.797Z,23.55
2023-01-19T18:44:03.082Z,17.70
2023-01-19T18:47:05.815Z,22.55
2023-01-19T18:50:08.744Z,25.98
2023-01-19T18:53:10.837Z,26.20
2023-01-19T18:56:14.668Z,28.08
2023-01-19T18:59:16.504Z,37.13
2023-01-19T19:02:18.408Z,22.63
2023-01-19T19:05:20.091Z,25.48
2023-01-19T19:08:22.218Z,29.60
2023-01-19T19:11:25.444Z,29.70
2023-01-19T19:14:27.339Z,29.48
2023-01-19T19:17:29.497Z,29.20
2023-01-19T19:20:31.142Z,28.50
2023-01-19T19:23:33.749Z,31.63
2023-01-19T19:26:35.747Z,33.17
2023-01-19T19:29:37.429Z,36.70
2023-01-19T19:32:39.251Z,34.33
2023-01-19T19:35:41.104Z,37.63
2023-01-19T19:38:44.609Z,34.63
2023-01-19T19:41:46.486Z,34.63
2023-01-19T19:44:48.336Z,37.53
2023-01-19T19:47:51.276Z,38.38
2023-01-19T19:50:53.990Z,36.10
2023-01-19T19:53:59.522Z,29.98
2023-01-19T19:57:01.370Z,33.78
2023-01-19T20:00:05.177Z,38.17
2023-01-19T20:03:13.613Z,41.83
2023-01-19T20:06:21.427Z,35.67
2023-01-19T20:09:23.840Z,34.55
2023-01-19T20:12:25.654Z,39.63
2023-01-19T20:15:28.745Z,45.42
2023-01-19T20:18:31.846Z,37.90
2023-01-19T20:21:37.702Z,40.17
2023-01-19T20:24:39.487Z,46.95
2023-01-19T20:27:41.454Z,38.53
2023-01-19T20:30:43.740Z,48.55
2023-01-19T20:33:50.850Z,36.30
2023-01-19T20:36:54.029Z,41.72
2023-01-19T20:39:55.777Z,40.65
2023-01-19T20:42:57.425Z,36.75
2023-01-19T20:46:00.227Z,39.65
2023-01-19T20:49:02.058Z,36.72
2023-01-19T20:52:04.171Z,41.70
2023-01-19T20:55:08.911Z,37.70
2023-01-19T20:58:10.712Z,40.03
2023-01-19T21:01:15.500Z,41.70
2023-01-19T21:04:17.878Z,44.70
2023-01-19T21:07:19.879Z,41.20
2023-01-19T21:10:22.281Z,38.95
2023-01-19T21:13:24.404Z,39.58
2023-01-19T21:16:32.272Z,40.33
2023-01-19T21:19:34.085Z,38.65
2023-01-19T21:22:35.885Z,49.78
2023-01-19T21:25:38.705Z,38.75
2023-01-19T21:28:40.607Z,37.40
2023-01-19T21:31:42.761Z,42.22
2023-01-19T21:34:45.717Z,40.10
2023-01-19T21:37:47.889Z,44.83
2023-01-19T21:40:50.502Z,42.30
2023-01-19T21:43:54.906Z,44.33
2023-01-19T21:46:56.853Z,44.30
2023-01-19T21:49:58.851Z,44.35
2023-01-19T21:53:00.566Z,41.25
2023-01-19T21:56:02.304Z,45.25
2023-01-19T21:59:04.962Z,39.55
2023-01-19T22:02:06.804Z,41.95
2023-01-19T22:05:09.143Z,38.70
2023-01-19T22:08:10.936Z,46.58
2023-01-19T22:11:15.213Z,43.33
2023-01-19T22:14:16.846Z,41.40
2023-01-19T22:17:18.662Z,38.28
2023-01-19T22:20:20.750Z,42.85
2023-01-19T22:23:23.628Z,46.33
2023-01-19T22:26:26.586Z,38.42
2023-01-19T22:29:28.499Z,37.00
2023-01-19T22:32:31.558Z,39.95
2023-01-19T22:35:33.396Z,39.53
2023-01-19T22:38:35.474Z,37.45
2023-01-19T22:41:42.910Z,40.20
2023-01-19T22:44:46.155Z,41.55
2023-01-19T22:47:48.020Z,36.78
2023-01-19T22:50:56.133Z,43.30
2023-01-19T22:53:58.299Z,38.50
2023-01-19T22:57:00.329Z,43.47
2023-01-19T23:00:06.831Z,40.22
2023-01-19T23:03:08.483Z,40.13
2023-01-19T23:06:28.079Z,40.00
2023-01-19T23:09:29.864Z,37.47
2023-01-19T23:12:31.735Z,38.20
2023-01-19T23:15:34.433Z,35.88
2023-01-19T23:18:36.201Z,36.65
2023-01-19T23:21:37.780Z,43.05
2023-01-19T23:24:39.756Z,36.78
2023-01-19T23:27:41.760Z,35.33
2023-01-19T23:30:44.356Z,35.72
2023-01-19T23:33:46.575Z,35.40
2023-01-19T23:36:48.467Z,32.30
2023-01-19T23:39:50.356Z,35.92
2023-01-19T23:42:52.120Z,40.55
2023-01-19T23:45:54.032Z,34.65
2023-01-19T23:48:55.839Z,38.55
2023-01-19T23:51:58.600Z,39.03
2023-01-19T23:55:00.342Z,40.15
2023-01-19T23:58:02.163Z,35.75
